createdAt,value
2023-04-23T00:00:12.026Z,88.62
2023-04-23T00:01:12.021Z,88.31
2023-04-23T00:02:12.132Z,88.14
2023-04-23T00:03:12.078Z,87.79
2023-04-23T00:04:12.293Z,87.69
2023-04-23T00:05:11.999Z,88.41
2023-04-23T00:06:11.958Z,88.62
2023-04-23T00:07:11.949Z,89.13
2023-04-23T00:08:11.936Z,89.54
2023-04-23T00:09:11.967Z,89.23
2023-04-23T00:10:11.921Z,89.03
2023-04-23T00:11:11.904Z,88.62
2023-04-23T00:12:11.892Z,88.31
2023-04-23T00:13:11.881Z,88.92
2023-04-23T00:14:11.882Z,88.82
2023-04-23T00:15:11.879Z,89.23
2023-04-23T00:16:11.879Z,90.16
2023-04-23T00:17:11.843Z,91.19
2023-04-23T00:18:11.829Z,90.98
2023-04-23T00:19:11.816Z,91.29
2023-04-23T00:20:11.808Z,92.11
2023-04-23T00:21:11.810Z,92.73
2023-04-23T00:22:11.796Z,93.86
2023-04-23T00:23:11.788Z,94.17
2023-04-23T00:24:11.776Z,94.37
2023-04-23T00:25:11.784Z,94.78
2023-04-23T00:26:11.748Z,94.48
2023-04-23T00:27:11.731Z,94.42
2023-04-23T00:28:11.733Z,94.42
2023-04-23T00:29:11.726Z,94.42
2023-04-23T00:30:11.724Z,94.73
2023-04-23T00:31:11.691Z,94.21
2023-04-23T00:32:11.704Z,94.42
2023-04-23T00:33:11.670Z,94.62
2023-04-23T00:34:11.664Z,95.14
2023-04-23T00:35:11.662Z,94.77
2023-04-23T00:36:11.643Z,94.98
2023-04-23T00:37:11.633Z,94.77
2023-04-23T00:38:11.615Z,94.67
2023-04-23T00:39:11.603Z,94.46
2023-04-23T00:40:11.595Z,95.14
2023-04-23T00:41:11.637Z,94.26
2023-04-23T00:42:11.568Z,94.15
2023-04-23T00:43:11.595Z,95.28
2023-04-23T00:44:11.550Z,94.26
2023-04-23T00:45:11.540Z,94.15
2023-04-23T00:46:11.560Z,92.92
2023-04-23T00:47:11.533Z,93.23
2023-04-23T00:48:11.510Z,92.82
2023-04-23T00:49:11.510Z,93.12
2023-04-23T00:50:11.529Z,93.23
2023-04-23T00:51:11.491Z,92.92
2023-04-23T00:52:11.484Z,93.23
2023-04-23T00:53:11.462Z,92.61
2023-04-23T00:54:11.443Z,92.92
2023-04-23T00:55:11.423Z,93.33
2023-04-23T00:56:11.420Z,92.82
2023-04-23T00:57:11.435Z,92.71
2023-04-23T00:58:11.409Z,92.30
2023-04-23T00:59:11.386Z,92.10
2023-04-23T01:00:11.378Z,92.20
2023-04-23T01:01:11.417Z,91.27
2023-04-23T01:02:11.383Z,91.68
2023-04-23T01:03:11.682Z,91.78
2023-04-23T01:04:11.483Z,93.06
2023-04-23T01:05:11.323Z,92.20
2023-04-23T01:06:11.314Z,92.50
2023-04-23T01:07:11.301Z,91.89
2023-04-23T01:08:11.293Z,92.30
2023-04-23T01:09:11.287Z,90.75
2023-04-23T01:10:11.269Z,90.66
2023-04-23T01:11:11.261Z,91.89
2023-04-23T01:12:11.262Z,91.58
2023-04-23T01:13:11.261Z,91.78
2023-04-23T01:14:11.223Z,91.27
2023-04-23T01:15:11.213Z,91.89
2023-04-23T01:16:11.206Z,91.27
2023-04-23T01:17:11.197Z,90.75
2023-04-23T01:18:11.193Z,91.38
2023-04-23T01:19:11.170Z,90.86
2023-04-23T01:20:11.160Z,91.06
2023-04-23T01:21:11.153Z,90.86
2023-04-23T01:22:11.147Z,90.66
2023-04-23T01:23:11.145Z,90.55
2023-04-23T01:24:11.110Z,90.18
2023-04-23T01:25:11.116Z,90.55
2023-04-23T01:26:11.125Z,90.14
2023-04-23T01:27:11.092Z,90.55
2023-04-23T01:28:11.073Z,90.34
2023-04-23T01:29:11.100Z,89.73
2023-04-23T01:30:11.043Z,89.97
2023-04-23T01:31:11.053Z,90.66
2023-04-23T01:32:11.027Z,91.00
2023-04-23T01:33:11.020Z,91.21
2023-04-23T01:34:11.015Z,90.69
2023-04-23T01:35:10.996Z,91.11
2023-04-23T01:36:10.984Z,90.90
2023-04-23T01:37:10.971Z,90.80
2023-04-23T01:38:10.967Z,90.39
2023-04-23T01:39:10.949Z,89.77
2023-04-23T01:40:10.966Z,90.33
2023-04-23T01:41:10.926Z,90.49
2023-04-23T01:42:10.914Z,91.21
2023-04-23T01:43:10.917Z,91.11
2023-04-23T01:44:10.895Z,90.73
2023-04-23T01:45:10.922Z,90.69
2023-04-23T01:46:10.931Z,91.11
2023-04-23T01:47:10.866Z,91.31
2023-04-23T01:48:10.851Z,90.80
2023-04-23T01:49:10.839Z,91.15
2023-04-23T01:50:10.860Z,91.21
2023-04-23T01:51:10.830Z,90.69
2023-04-23T01:52:10.830Z,90.90
2023-04-23T01:53:10.796Z,90.90
2023-04-23T01:54:10.781Z,90.53
2023-04-23T01:55:10.787Z,91.00
2023-04-23T01:56:10.771Z,91.00
2023-04-23T01:57:10.770Z,90.80
2023-04-23T01:58:10.736Z,91.11
2023-04-23T01:59:10.767Z,90.90
2023-04-23T02:00:10.720Z,90.39
2023-04-23T02:01:10.787Z,90.59
2023-04-23T02:02:10.775Z,90.18
2023-04-23T02:03:10.892Z,89.87
2023-04-23T02:04:10.835Z,90.69
2023-04-23T02:05:10.666Z,89.97
2023-04-23T02:06:10.655Z,89.87
2023-04-23T02:07:10.642Z,90.18
2023-04-23T02:08:10.638Z,89.87
2023-04-23T02:09:10.631Z,90.18
2023-04-23T02:10:10.629Z,89.97
2023-04-23T02:11:10.611Z,89.36
2023-04-23T02:12:10.594Z,89.36
2023-04-23T02:13:10.630Z,89.05
2023-04-23T02:14:10.572Z,89.36
2023-04-23T02:15:10.561Z,89.97
2023-04-23T02:16:10.575Z,90.69
2023-04-23T02:17:10.552Z,89.97
2023-04-23T02:18:10.521Z,90.28
2023-04-23T02:19:10.510Z,90.08
2023-04-23T02:20:10.569Z,89.77
2023-04-23T02:21:10.490Z,90.28
2023-04-23T02:22:10.486Z,90.49
2023-04-23T02:23:10.481Z,90.39
2023-04-23T02:24:10.466Z,90.39
2023-04-23T02:25:10.447Z,91.42
2023-04-23T02:26:10.459Z,91.56
2023-04-23T02:27:10.438Z,91.77
2023-04-23T02:28:10.418Z,90.69
2023-04-23T02:29:10.408Z,91.00
2023-04-23T02:30:10.393Z,89.71
2023-04-23T02:31:10.410Z,89.81
2023-04-23T02:32:10.366Z,89.71
2023-04-23T02:33:10.394Z,89.50
2023-04-23T02:34:10.347Z,89.91
2023-04-23T02:35:10.338Z,90.53
2023-04-23T02:36:10.360Z,90.33
2023-04-23T02:37:10.317Z,90.78
2023-04-23T02:38:10.313Z,90.22
2023-04-23T02:39:10.294Z,90.39
2023-04-23T02:40:10.308Z,90.59
2023-04-23T02:41:10.271Z,90.28
2023-04-23T02:42:10.264Z,89.67
2023-04-23T02:43:10.270Z,89.46
2023-04-23T02:44:10.235Z,89.83
2023-04-23T02:45:10.238Z,89.77
2023-04-23T02:46:10.231Z,90.18
2023-04-23T02:47:10.207Z,90.55
2023-04-23T02:48:10.219Z,91.31
2023-04-23T02:49:10.213Z,90.69
2023-04-23T02:50:10.205Z,89.97
2023-04-23T02:51:10.168Z,90.49
2023-04-23T02:52:10.154Z,91.87
2023-04-23T02:53:10.143Z,91.66
2023-04-23T02:54:10.129Z,92.34
2023-04-23T02:55:10.124Z,91.97
2023-04-23T02:56:10.118Z,92.29
2023-04-23T02:57:10.098Z,91.87
2023-04-23T02:58:10.081Z,92.24
2023-04-23T02:59:10.071Z,92.38
2023-04-23T03:00:10.061Z,92.18
2023-04-23T03:01:10.071Z,92.18
2023-04-23T03:02:10.132Z,93.21
2023-04-23T03:03:12.493Z,93.11
2023-04-23T03:04:10.319Z,92.80
2023-04-23T03:05:10.053Z,93.35
2023-04-23T03:06:10.015Z,93.31
2023-04-23T03:07:10.002Z,93.56
2023-04-23T03:08:09.978Z,93.05
2023-04-23T03:09:09.967Z,92.33
2023-04-23T03:10:09.953Z,91.19
2023-04-23T03:11:09.940Z,91.40
2023-04-23T03:12:09.949Z,89.71
2023-04-23T03:13:09.922Z,91.25
2023-04-23T03:14:09.907Z,91.25
2023-04-23T03:15:09.896Z,90.22
2023-04-23T03:16:09.893Z,89.61
2023-04-23T03:17:09.884Z,88.78
2023-04-23T03:18:09.880Z,88.43
2023-04-23T03:19:09.867Z,88.95
2023-04-23T03:20:09.842Z,89.46
2023-04-23T03:21:09.849Z,89.50
2023-04-23T03:22:09.814Z,89.91
2023-04-23T03:23:09.824Z,90.43
2023-04-23T03:24:09.805Z,88.78
2023-04-23T03:25:09.804Z,89.81
2023-04-23T03:26:09.792Z,89.81
2023-04-23T03:27:09.775Z,89.50
2023-04-23T03:28:09.756Z,89.81
2023-04-23T03:29:09.741Z,90.64
2023-04-23T03:30:09.750Z,90.33
2023-04-23T03:31:09.772Z,90.22
2023-04-23T03:32:09.706Z,89.50
2023-04-23T03:33:09.695Z,89.29
2023-04-23T03:34:09.710Z,89.61
2023-04-23T03:35:09.739Z,89.61
2023-04-23T03:36:09.683Z,89.81
2023-04-23T03:37:09.693Z,89.95
2023-04-23T03:38:09.639Z,89.40
2023-04-23T03:39:09.631Z,89.61
2023-04-23T03:40:09.625Z,89.71
2023-04-23T03:41:09.618Z,89.91
2023-04-23T03:42:09.619Z,89.71
2023-04-23T03:43:09.587Z,89.19
2023-04-23T03:44:09.590Z,89.91
2023-04-23T03:45:09.574Z,89.71
2023-04-23T03:46:09.585Z,89.54
2023-04-23T03:47:09.547Z,89.91
2023-04-23T03:48:09.565Z,89.50
2023-04-23T03:49:09.522Z,89.19
2023-04-23T03:50:09.533Z,89.50
2023-04-23T03:51:09.504Z,90.12
2023-04-23T03:52:09.497Z,90.12
2023-04-23T03:53:09.523Z,90.01
2023-04-23T03:54:09.479Z,90.53
2023-04-23T03:55:09.463Z,90.43
2023-04-23T03:56:09.446Z,90.12
2023-04-23T03:57:09.445Z,90.84
2023-04-23T03:58:09.426Z,91.66
2023-04-23T03:59:09.455Z,92.43
2023-04-23T04:00:09.418Z,92.84
2023-04-23T04:01:09.396Z,91.91
2023-04-23T04:02:09.445Z,92.33
2023-04-23T04:03:09.574Z,91.03
2023-04-23T04:04:09.548Z,91.19
2023-04-23T04:05:09.684Z,90.67
2023-04-23T04:06:09.342Z,90.78
2023-04-23T04:07:09.334Z,89.75
2023-04-23T04:08:09.316Z,90.57
2023-04-23T04:09:09.349Z,90.88
2023-04-23T04:10:09.313Z,91.30
2023-04-23T04:11:09.295Z,90.92
2023-04-23T04:12:09.282Z,91.09
2023-04-23T04:13:09.267Z,91.40
2023-04-23T04:14:09.257Z,90.67
2023-04-23T04:15:09.259Z,90.06
2023-04-23T04:16:09.263Z,91.19
2023-04-23T04:17:09.245Z,92.22
2023-04-23T04:18:09.221Z,92.12
2023-04-23T04:19:09.218Z,92.43
2023-04-23T04:20:09.196Z,92.02
2023-04-23T04:21:09.193Z,92.27
2023-04-23T04:22:09.169Z,92.12
2023-04-23T04:23:09.171Z,92.94
2023-04-23T04:24:09.158Z,92.33
2023-04-23T04:25:09.169Z,92.27
2023-04-23T04:26:09.117Z,92.53
2023-04-23T04:27:09.149Z,92.27
2023-04-23T04:28:09.129Z,91.40
2023-04-23T04:29:09.102Z,91.40
2023-04-23T04:30:09.085Z,91.19
2023-04-23T04:31:09.120Z,90.26
2023-04-23T04:32:09.056Z,90.47
2023-04-23T04:33:09.052Z,90.57
2023-04-23T04:34:09.051Z,90.78
2023-04-23T04:35:09.054Z,90.64
2023-04-23T04:36:09.027Z,91.05
2023-04-23T04:37:09.003Z,92.59
2023-04-23T04:38:09.004Z,92.33
2023-04-23T04:39:08.984Z,91.46
2023-04-23T04:40:08.977Z,92.43
2023-04-23T04:41:08.985Z,92.22
2023-04-23T04:42:08.958Z,92.02
2023-04-23T04:43:08.935Z,92.18
2023-04-23T04:44:08.931Z,93.15
2023-04-23T04:45:08.920Z,93.11
2023-04-23T04:46:08.916Z,92.38
2023-04-23T04:47:09.046Z,91.15
2023-04-23T04:48:08.895Z,90.94
2023-04-23T04:49:08.906Z,90.01
2023-04-23T04:50:08.853Z,89.56
2023-04-23T04:51:08.846Z,90.18
2023-04-23T04:52:08.841Z,89.67
2023-04-23T04:53:08.825Z,91.00
2023-04-23T04:54:08.843Z,90.90
2023-04-23T04:55:08.804Z,90.69
2023-04-23T04:56:08.792Z,90.08
2023-04-23T04:57:08.817Z,89.56
2023-04-23T04:58:08.767Z,90.90
2023-04-23T04:59:08.804Z,89.67
2023-04-23T05:00:08.762Z,90.18
2023-04-23T05:01:08.764Z,89.56
2023-04-23T05:02:08.783Z,90.03
2023-04-23T05:03:10.369Z,90.14
2023-04-23T05:04:08.932Z,90.55
2023-04-23T05:05:08.704Z,91.58
2023-04-23T05:06:08.719Z,89.46
2023-04-23T05:07:08.670Z,90.55
2023-04-23T05:08:08.687Z,91.11
2023-04-23T05:09:08.654Z,91.06
2023-04-23T05:10:08.637Z,90.45
2023-04-23T05:11:08.647Z,90.03
2023-04-23T05:12:08.628Z,89.42
2023-04-23T05:13:08.628Z,89.67
2023-04-23T05:14:08.607Z,88.95
2023-04-23T05:15:08.592Z,89.46
2023-04-23T05:16:08.601Z,89.25
2023-04-23T05:17:08.587Z,89.15
2023-04-23T05:18:08.563Z,88.95
2023-04-23T05:19:08.642Z,87.67
2023-04-23T05:20:08.539Z,87.36
2023-04-23T05:21:08.524Z,87.12
2023-04-23T05:22:08.523Z,86.97
2023-04-23T05:23:08.515Z,86.93
2023-04-23T05:24:08.493Z,87.24
2023-04-23T05:25:08.479Z,86.27
2023-04-23T05:26:08.473Z,84.22
2023-04-23T05:27:08.460Z,84.12
2023-04-23T05:28:08.459Z,82.84
2023-04-23T05:29:08.456Z,82.60
2023-04-23T05:30:08.448Z,82.75
2023-04-23T05:31:08.432Z,83.67
2023-04-23T05:32:08.452Z,83.36
2023-04-23T05:33:08.410Z,82.75
2023-04-23T05:34:08.393Z,83.32
2023-04-23T05:35:08.376Z,83.53
2023-04-23T05:36:08.367Z,84.25
2023-04-23T05:37:08.346Z,84.82
2023-04-23T05:38:08.338Z,82.77
2023-04-23T05:39:08.329Z,80.64
2023-04-23T05:40:08.325Z,80.60
2023-04-23T05:41:08.370Z,79.38
2023-04-23T05:42:08.296Z,82.46
2023-04-23T05:43:08.284Z,83.18
2023-04-23T05:44:08.271Z,84.14
2023-04-23T05:45:09.198Z,84.69
2023-04-23T05:46:08.318Z,84.66
2023-04-23T05:47:08.252Z,83.94
2023-04-23T05:48:08.234Z,84.18
2023-04-23T05:49:08.220Z,85.00
2023-04-23T05:50:08.213Z,85.35
2023-04-23T05:51:08.213Z,84.31
2023-04-23T05:52:08.186Z,83.04
2023-04-23T05:53:08.174Z,82.42
2023-04-23T05:54:08.178Z,82.39
2023-04-23T05:55:08.144Z,81.54
2023-04-23T05:56:08.143Z,80.58
2023-04-23T05:57:08.134Z,80.88
2023-04-23T05:58:08.116Z,82.67
2023-04-23T05:59:08.102Z,82.79
2023-04-23T06:00:08.101Z,82.86
2023-04-23T06:01:08.101Z,81.71
2023-04-23T06:02:08.197Z,82.42
2023-04-23T06:03:08.178Z,81.84
2023-04-23T06:04:08.211Z,81.01
2023-04-23T06:05:08.293Z,81.90
2023-04-23T06:06:08.026Z,80.67
2023-04-23T06:07:08.014Z,79.75
2023-04-23T06:08:08.012Z,80.94
2023-04-23T06:09:07.985Z,78.96
2023-04-23T06:10:07.989Z,80.98
2023-04-23T06:11:07.985Z,81.87
2023-04-23T06:12:07.963Z,83.25
2023-04-23T06:13:07.950Z,83.92
2023-04-23T06:14:07.937Z,84.72
2023-04-23T06:15:07.935Z,84.61
2023-04-23T06:16:07.942Z,85.99
2023-04-23T06:17:07.936Z,86.75
2023-04-23T06:18:08.095Z,87.98
2023-04-23T06:19:07.878Z,89.15
2023-04-23T06:20:07.867Z,87.85
2023-04-23T06:21:07.872Z,88.78
2023-04-23T06:22:07.847Z,88.57
2023-04-23T06:23:07.834Z,88.78
2023-04-23T06:24:07.840Z,88.33
2023-04-23T06:25:07.811Z,87.82
2023-04-23T06:26:07.800Z,88.17
2023-04-23T06:27:07.802Z,88.89
2023-04-23T06:28:07.799Z,88.78
2023-04-23T06:29:07.788Z,88.72
2023-04-23T06:30:07.764Z,87.77
2023-04-23T06:31:07.774Z,86.98
2023-04-23T06:32:07.734Z,86.52
2023-04-23T06:33:07.754Z,86.91
2023-04-23T06:34:07.720Z,87.57
2023-04-23T06:35:08.531Z,87.63
2023-04-23T06:36:07.700Z,85.56
2023-04-23T06:37:07.687Z,85.77
2023-04-23T06:38:07.680Z,84.74
2023-04-23T06:39:07.665Z,83.84
2023-04-23T06:40:07.688Z,82.14
2023-04-23T06:41:07.655Z,81.08
2023-04-23T06:42:07.636Z,79.82
2023-04-23T06:43:07.621Z,79.61
2023-04-23T06:44:07.614Z,79.30
2023-04-23T06:45:07.620Z,78.24
2023-04-23T06:46:07.591Z,78.52
2023-04-23T06:47:07.662Z,79.58
2023-04-23T06:48:07.621Z,80.74
2023-04-23T06:49:07.586Z,81.81
2023-04-23T06:50:07.548Z,82.39
2023-04-23T06:51:07.537Z,81.09
2023-04-23T06:52:07.522Z,81.57
2023-04-23T06:53:07.522Z,81.50
2023-04-23T06:54:07.499Z,82.73
2023-04-23T06:55:07.494Z,83.04
2023-04-23T06:56:07.490Z,83.18
2023-04-23T06:57:07.465Z,84.41
2023-04-23T06:58:07.447Z,84.92
2023-04-23T06:59:07.442Z,85.80
2023-04-23T07:00:07.561Z,83.45
2023-04-23T07:01:07.537Z,84.41
2023-04-23T07:02:07.434Z,84.20
2023-04-23T07:03:07.617Z,84.64
2023-04-23T07:04:07.422Z,82.65
2023-04-23T07:05:07.411Z,82.57
2023-04-23T07:06:07.390Z,80.08
2023-04-23T07:07:07.364Z,80.80
2023-04-23T07:08:07.356Z,79.27
2023-04-23T07:09:07.384Z,81.30
2023-04-23T07:10:07.339Z,78.54
2023-04-23T07:11:07.323Z,77.93
2023-04-23T07:12:07.392Z,81.37
2023-04-23T07:13:07.537Z,80.85
2023-04-23T07:14:07.297Z,78.64
2023-04-23T07:15:07.311Z,80.29
2023-04-23T07:16:07.327Z,79.34
2023-04-23T07:17:07.320Z,78.19
2023-04-23T07:18:07.276Z,76.73
2023-04-23T07:19:07.240Z,76.59
2023-04-23T07:20:07.241Z,76.09
2023-04-23T07:21:07.267Z,79.41
2023-04-23T07:22:07.219Z,78.33
2023-04-23T07:23:07.201Z,80.10
2023-04-23T07:24:07.515Z,80.42
2023-04-23T07:25:07.191Z,82.50
2023-04-23T07:26:07.173Z,81.10
2023-04-23T07:27:07.165Z,82.09
2023-04-23T07:28:07.167Z,79.97
2023-04-23T07:29:07.140Z,80.48
2023-04-23T07:30:07.136Z,80.01
2023-04-23T07:31:07.121Z,80.69
2023-04-23T07:32:07.173Z,81.88
2023-04-23T07:33:07.129Z,80.66
2023-04-23T07:34:07.121Z,81.41
2023-04-23T07:35:07.082Z,82.37
2023-04-23T07:36:07.073Z,82.04
2023-04-23T07:37:07.079Z,83.95
2023-04-23T07:38:07.041Z,82.69
2023-04-23T07:39:07.031Z,84.84
2023-04-23T07:40:07.304Z,85.01
2023-04-23T07:41:07.018Z,83.61
2023-04-23T07:42:07.027Z,84.12
2023-04-23T07:43:06.986Z,84.47
2023-04-23T07:44:06.968Z,83.65
2023-04-23T07:45:06.964Z,84.68
2023-04-23T07:46:07.032Z,84.84
2023-04-23T07:47:06.948Z,84.70
2023-04-23T07:48:07.014Z,83.47
2023-04-23T07:49:06.921Z,83.23
2023-04-23T07:50:06.939Z,83.33
2023-04-23T07:51:06.889Z,83.70
2023-04-23T07:52:06.880Z,82.37
2023-04-23T07:53:06.898Z,84.25
2023-04-23T07:54:06.859Z,82.71
2023-04-23T07:55:06.850Z,82.31
2023-04-23T07:56:06.851Z,82.79
2023-04-23T07:57:06.830Z,84.58
2023-04-23T07:58:06.828Z,82.97
2023-04-23T07:59:06.807Z,83.76
2023-04-23T08:00:06.812Z,82.01
2023-04-23T08:01:06.782Z,84.37
2023-04-23T08:02:06.845Z,84.74
2023-04-23T08:03:06.892Z,83.65
2023-04-23T08:04:07.024Z,84.29
2023-04-23T08:05:06.954Z,84.91
2023-04-23T08:06:06.733Z,83.27
2023-04-23T08:07:06.713Z,84.29
2023-04-23T08:08:06.707Z,83.27
2023-04-23T08:09:06.786Z,82.51
2023-04-23T08:10:06.739Z,83.37
2023-04-23T08:11:06.690Z,84.70
2023-04-23T08:12:06.665Z,85.28
2023-04-23T08:13:06.649Z,84.11
2023-04-23T08:14:06.661Z,83.74
2023-04-23T08:15:06.623Z,85.99
2023-04-23T08:16:06.678Z,85.17
2023-04-23T08:17:06.604Z,84.31
2023-04-23T08:18:06.596Z,82.82
2023-04-23T08:19:06.751Z,82.62
2023-04-23T08:20:06.583Z,83.03
2023-04-23T08:21:06.559Z,82.71
2023-04-23T08:22:06.551Z,83.74
2023-04-23T08:23:06.531Z,83.54
2023-04-23T08:24:06.532Z,83.06
2023-04-23T08:25:06.565Z,83.47
2023-04-23T08:26:06.499Z,84.66
2023-04-23T08:27:06.494Z,84.42
2023-04-23T08:28:06.490Z,83.03
2023-04-23T08:29:06.468Z,82.27
2023-04-23T08:30:06.455Z,83.60
2023-04-23T08:31:19.003Z,82.54
2023-04-23T08:32:07.478Z,84.38
2023-04-23T08:33:06.435Z,83.36
2023-04-23T08:34:06.406Z,84.85
2023-04-23T08:35:06.433Z,84.03
2023-04-23T08:36:06.391Z,83.05
2023-04-23T08:37:08.538Z,83.50
2023-04-23T08:38:07.366Z,84.72
2023-04-23T08:39:06.351Z,85.69
2023-04-23T08:40:06.337Z,86.05
2023-04-23T08:41:06.368Z,86.94
2023-04-23T08:42:06.340Z,86.12
2023-04-23T08:43:06.309Z,86.46
2023-04-23T08:44:06.291Z,86.91
2023-04-23T08:45:06.360Z,87.08
2023-04-23T08:46:06.287Z,86.88
2023-04-23T08:47:06.266Z,87.94
2023-04-23T08:48:06.280Z,86.51
2023-04-23T08:49:06.250Z,88.56
2023-04-23T08:50:06.238Z,87.43
2023-04-23T08:51:06.225Z,87.18
2023-04-23T08:52:06.224Z,86.20
2023-04-23T08:53:06.198Z,87.94
2023-04-23T08:54:06.228Z,87.79
2023-04-23T08:55:06.390Z,87.63
2023-04-23T08:56:06.173Z,86.65
2023-04-23T08:57:06.193Z,87.37
2023-04-23T08:58:06.144Z,87.26
2023-04-23T08:59:06.160Z,87.71
2023-04-23T09:00:06.131Z,88.64
2023-04-23T09:01:06.183Z,88.80
2023-04-23T09:02:06.213Z,88.08
2023-04-23T09:03:06.355Z,88.39
2023-04-23T09:04:06.111Z,88.08
2023-04-23T09:05:06.091Z,88.23
2023-04-23T09:06:06.074Z,89.25
2023-04-23T09:07:06.056Z,90.28
2023-04-23T09:08:06.038Z,89.76
2023-04-23T09:09:06.035Z,89.15
2023-04-23T09:10:06.028Z,88.64
2023-04-23T09:11:06.012Z,89.21
2023-04-23T09:12:05.993Z,89.72
2023-04-23T09:13:06.004Z,89.00
2023-04-23T09:14:05.981Z,88.49
2023-04-23T09:15:05.958Z,88.90
2023-04-23T09:16:05.990Z,89.62
2023-04-23T09:17:05.976Z,89.11
2023-04-23T09:18:05.972Z,89.11
2023-04-23T09:19:05.922Z,89.51
2023-04-23T09:20:05.918Z,89.66
2023-04-23T09:21:05.885Z,90.28
2023-04-23T09:22:05.878Z,90.99
2023-04-23T09:23:05.873Z,90.79
2023-04-23T09:24:05.864Z,90.83
2023-04-23T09:25:05.853Z,91.14
2023-04-23T09:26:05.855Z,91.75
2023-04-23T09:27:05.828Z,91.55
2023-04-23T09:28:05.813Z,90.62
2023-04-23T09:29:05.825Z,89.43
2023-04-23T09:30:05.820Z,90.73
2023-04-23T09:31:05.778Z,90.36
2023-04-23T09:32:05.822Z,91.18
2023-04-23T09:33:05.789Z,91.03
2023-04-23T09:34:05.752Z,90.83
2023-04-23T09:35:05.732Z,90.52
2023-04-23T09:36:05.742Z,89.81
2023-04-23T09:37:05.720Z,90.28
2023-04-23T09:38:05.718Z,89.76
2023-04-23T09:39:05.689Z,90.48
2023-04-23T09:40:05.688Z,90.03
2023-04-23T09:41:05.667Z,88.59
2023-04-23T09:42:05.715Z,89.76
2023-04-23T09:43:05.659Z,90.17
2023-04-23T09:44:05.649Z,90.54
2023-04-23T09:45:05.849Z,89.83
2023-04-23T09:46:05.660Z,89.42
2023-04-23T09:47:05.616Z,89.21
2023-04-23T09:48:05.661Z,89.72
2023-04-23T09:49:05.587Z,88.08
2023-04-23T09:50:05.578Z,88.70
2023-04-23T09:51:05.558Z,88.70
2023-04-23T09:52:05.550Z,89.92
2023-04-23T09:53:05.539Z,90.13
2023-04-23T09:54:05.555Z,89.36
2023-04-23T09:55:05.510Z,90.17
2023-04-23T09:56:05.505Z,89.56
2023-04-23T09:57:05.492Z,89.76
2023-04-23T09:58:05.481Z,89.76
2023-04-23T09:59:05.477Z,90.22
2023-04-23T10:00:14.172Z,90.79
2023-04-23T10:01:06.565Z,90.93
2023-04-23T10:02:05.573Z,91.35
2023-04-23T10:03:05.525Z,91.03
2023-04-23T10:04:05.694Z,90.93
2023-04-23T10:05:21.672Z,91.44
2023-04-23T10:06:07.600Z,91.24
2023-04-23T10:07:18.069Z,90.73
2023-04-23T10:08:06.375Z,89.95
2023-04-23T10:09:05.361Z,90.93
2023-04-23T10:10:05.368Z,90.42
2023-04-23T10:11:19.902Z,90.79
2023-04-23T10:12:11.397Z,90.99
2023-04-23T10:13:06.309Z,90.89
2023-04-23T10:14:05.301Z,90.69
2023-04-23T10:15:05.295Z,90.89
2023-04-23T10:16:20.630Z,91.75
2023-04-23T10:17:06.399Z,90.42
2023-04-23T10:18:05.339Z,90.89
2023-04-23T10:19:05.253Z,90.62
2023-04-23T10:20:05.246Z,90.58
2023-04-23T10:21:05.241Z,91.82
2023-04-23T10:22:18.557Z,92.12
2023-04-23T10:23:06.228Z,92.18
2023-04-23T10:24:05.193Z,92.55
2023-04-23T10:25:05.180Z,90.23
2023-04-23T10:26:05.194Z,92.24
2023-04-23T10:27:05.169Z,92.30
2023-04-23T10:28:05.152Z,89.94
2023-04-23T10:29:05.136Z,90.25
2023-04-23T10:30:06.426Z,90.62
2023-04-23T10:31:05.157Z,89.74
2023-04-23T10:32:05.148Z,89.12
2023-04-23T10:33:10.821Z,88.88
2023-04-23T10:34:06.310Z,89.90
2023-04-23T10:35:05.075Z,91.39
2023-04-23T10:36:05.058Z,88.06
2023-04-23T10:37:05.079Z,87.45
2023-04-23T10:38:05.085Z,86.43
2023-04-23T10:39:05.357Z,86.08
2023-04-23T10:40:05.033Z,84.79
2023-04-23T10:41:05.002Z,82.03
2023-04-23T10:42:05.033Z,80.97
2023-04-23T10:43:05.000Z,81.17
2023-04-23T10:44:04.972Z,82.77
2023-04-23T10:45:13.131Z,81.65
2023-04-23T10:46:06.078Z,81.74
2023-04-23T10:47:04.940Z,80.42
2023-04-23T10:48:04.998Z,78.34
2023-04-23T10:49:05.106Z,76.53
2023-04-23T10:50:04.904Z,77.72
2023-04-23T10:51:21.305Z,77.42
2023-04-23T10:52:19.308Z,76.90
2023-04-23T10:53:05.945Z,77.22
2023-04-23T10:54:04.948Z,77.93
2023-04-23T10:55:04.900Z,76.50
2023-04-23T10:56:04.846Z,73.84
2023-04-23T10:57:04.864Z,74.46
2023-04-23T10:58:04.887Z,74.32
2023-04-23T10:59:04.813Z,74.35
2023-04-23T11:00:04.811Z,73.40
2023-04-23T11:01:04.821Z,72.69
2023-04-23T11:02:04.866Z,74.32
2023-04-23T11:03:04.973Z,72.38
2023-04-23T11:04:05.000Z,72.04
2023-04-23T11:05:04.866Z,72.38
2023-04-23T11:06:04.737Z,72.38
2023-04-23T11:07:04.715Z,71.53
2023-04-23T11:08:18.216Z,71.77
2023-04-23T11:09:05.699Z,71.26
2023-04-23T11:10:04.691Z,71.15
2023-04-23T11:11:04.680Z,76.26
2023-04-23T11:12:04.674Z,79.16
2023-04-23T11:13:04.652Z,81.10
2023-04-23T11:14:04.653Z,83.44
2023-04-23T11:15:04.631Z,84.50
2023-04-23T11:16:04.652Z,85.73
2023-04-23T11:17:04.616Z,85.42
2023-04-23T11:18:04.702Z,86.08
2023-04-23T11:19:04.589Z,86.44
2023-04-23T11:20:04.600Z,85.42
2023-04-23T11:21:04.610Z,83.73
2023-04-23T11:22:04.565Z,84.79
2023-04-23T11:23:04.544Z,86.08
2023-04-23T11:24:04.542Z,85.30
2023-04-23T11:25:04.533Z,86.22
2023-04-23T11:26:04.512Z,87.79
2023-04-23T11:27:04.506Z,88.04
2023-04-23T11:28:04.495Z,87.53
2023-04-23T11:29:04.480Z,87.79
2023-04-23T11:30:04.486Z,86.67
2023-04-23T11:31:04.481Z,86.43
2023-04-23T11:32:04.495Z,84.85
2023-04-23T11:33:04.525Z,83.65
2023-04-23T11:34:04.440Z,83.43
2023-04-23T11:35:04.430Z,80.64
2023-04-23T11:36:04.449Z,79.41
2023-04-23T11:37:04.430Z,80.09
2023-04-23T11:38:04.388Z,77.14
2023-04-23T11:39:04.379Z,74.96
2023-04-23T11:40:04.378Z,76.80
2023-04-23T11:41:04.356Z,77.62
2023-04-23T11:42:04.357Z,79.21
2023-04-23T11:43:04.342Z,76.80
2023-04-23T11:44:04.320Z,77.58
2023-04-23T11:45:04.315Z,76.97
2023-04-23T11:46:04.357Z,76.76
2023-04-23T11:47:04.293Z,78.09
2023-04-23T11:48:04.309Z,75.16
2023-04-23T11:49:04.273Z,73.94
2023-04-23T11:50:04.270Z,71.09
2023-04-23T11:51:04.245Z,72.41
2023-04-23T11:52:04.234Z,71.50
2023-04-23T11:53:04.344Z,72.92
2023-04-23T11:54:04.215Z,74.05
2023-04-23T11:55:04.239Z,77.31
2023-04-23T11:56:04.209Z,79.08
2023-04-23T11:57:04.183Z,78.77
2023-04-23T11:58:04.173Z,78.41
2023-04-23T11:59:04.186Z,78.61
2023-04-23T12:00:04.151Z,80.65
2023-04-23T12:01:04.138Z,79.63
2023-04-23T12:02:04.173Z,79.25
2023-04-23T12:03:04.300Z,80.28
2023-04-23T12:04:04.371Z,80.21
2023-04-23T12:05:04.188Z,80.73
2023-04-23T12:06:04.082Z,81.54
2023-04-23T12:07:12.745Z,81.54
2023-04-23T12:08:05.071Z,82.46
2023-04-23T12:09:04.085Z,79.46
2023-04-23T12:10:04.064Z,80.28
2023-04-23T12:11:04.032Z,79.05
2023-04-23T12:12:04.031Z,77.83
2023-04-23T12:13:04.002Z,79.36
2023-04-23T12:14:03.989Z,78.34
2023-04-23T12:15:04.017Z,76.97
2023-04-23T12:16:04.039Z,73.94
2023-04-23T12:17:03.971Z,77.42
2023-04-23T12:18:03.951Z,78.03
2023-04-23T12:19:03.947Z,80.04
2023-04-23T12:20:03.941Z,77.31
2023-04-23T12:21:03.923Z,76.19
2023-04-23T12:22:03.924Z,78.48
2023-04-23T12:23:03.897Z,79.46
2023-04-23T12:24:03.899Z,79.66
2023-04-23T12:25:03.958Z,80.79
2023-04-23T12:26:03.862Z,76.50
2023-04-23T12:27:03.918Z,77.11
2023-04-23T12:28:03.853Z,78.64
2023-04-23T12:29:03.829Z,76.29
2023-04-23T12:30:06.411Z,75.95
2023-04-23T12:31:03.853Z,75.44
2023-04-23T12:32:03.816Z,75.10
2023-04-23T12:33:03.928Z,74.63
2023-04-23T12:34:03.793Z,71.73
2023-04-23T12:35:03.779Z,72.62
2023-04-23T12:36:03.758Z,73.43
2023-04-23T12:37:03.746Z,71.39
2023-04-23T12:38:03.740Z,71.60
2023-04-23T12:39:03.725Z,74.79
2023-04-23T12:40:03.723Z,72.75
2023-04-23T12:41:03.738Z,72.99
2023-04-23T12:42:03.701Z,73.77
2023-04-23T12:43:03.679Z,74.15
2023-04-23T12:44:03.678Z,72.34
2023-04-23T12:45:03.674Z,72.24
2023-04-23T12:46:03.664Z,72.99
2023-04-23T12:47:03.788Z,72.65
2023-04-23T12:48:03.697Z,73.16
2023-04-23T12:49:03.616Z,74.18
2023-04-23T12:50:03.645Z,74.29
2023-04-23T12:51:03.601Z,72.14
2023-04-23T12:52:03.618Z,71.87